This is the latest recevied weather packets stored in our database for station/object N6DZK. If no packets are shown the sender has not sent any weather packets the latest 10 day(s).
| Time | Temp. | Humidity | Pressure | Rain* | Wind** | Luminosity | Snow |
|---|---|---|---|---|---|---|---|
| 1777571197 | 21.67° C | 51% | 1015.6 hPa | 0 mm | - | 845 W/m² | - |
| 1777570892 | 20.56° C | 54% | 1015.5 hPa | 0 mm | - | 831 W/m² | - |
| 1777570588 | 20.56° C | 53% | 1015.6 hPa | 0 mm | - | 814 W/m² | - |
| 1777570285 | 20° C | 55% | 1015.4 hPa | 0 mm | - | 799 W/m² | - |
| 1777569980 | 20° C | 55% | 1015.7 hPa | 0 mm | - | 785 W/m² | - |
| 1777569676 | 20.56° C | 53% | 1015.6 hPa | 0 mm | - | 772 W/m² | - |
| 1777569372 | 20° C | 56% | 1015.5 hPa | 0 mm | - | 755 W/m² | - |
| 1777569069 | 19.44° C | 56% | 1015.7 hPa | 0 mm | - | 737 W/m² | - |
| 1777568766 | 18.89° C | 58% | 1015.5 hPa | 0 mm | - | 714 W/m² | - |
| 1777568463 | 18.89° C | 60% | 1015.6 hPa | 0 mm | - | 692 W/m² | - |
| 1777568160 | 18.89° C | 59% | 1015.8 hPa | 0 mm | - | 668 W/m² | - |
| 1777567857 | 20° C | 56% | 1015.8 hPa | 0 mm | - | 648 W/m² | - |
| 1777567553 | 19.44° C | 58% | 1015.7 hPa | 0 mm | - | 635 W/m² | - |
| 1777567250 | 19.44° C | 58% | 1015.7 hPa | 0 mm | - | 621 W/m² | - |
| 1777566949 | 18.89° C | 58% | 1015.7 hPa | 0 mm | - | 610 W/m² | - |
| 1777566646 | 18.33° C | 61% | 1015.6 hPa | 0 mm | - | 599 W/m² | - |
| 1777566344 | 17.78° C | 61% | 1015.7 hPa | 0 mm | - | 586 W/m² | - |
| 1777566041 | 17.22° C | 64% | 1015.7 hPa | 0 mm | - | 573 W/m² | - |
| 1777565736 | 17.78° C | 63% | 1015.8 hPa | 0 mm | - | 548 W/m² | - |
| 1777565433 | 18.33° C | 62% | 1015.9 hPa | 0 mm | - | 529 W/m² | - |
| 1777565129 | 18.33° C | 64% | 1015.9 hPa | 0 mm | - | 500 W/m² | - |
| 1777564826 | 17.78° C | 65% | 1015.9 hPa | 0 mm | - | 479 W/m² | - |
| 1777564520 | 17.78° C | 66% | 1015.9 hPa | 0 mm | - | 456 W/m² | - |
| 1777564215 | 17.78° C | 65% | 1015.9 hPa | 0 mm | - | 434 W/m² | - |
| 1777563912 | 17.78° C | 66% | 1015.9 hPa | 0 mm | - | 393 W/m² | - |
* Rain latest hour (hover to see other rain measurements)
** Current wind speed in m/s (hover to see current wind gust speed)